createdAt,value
2023-02-12T00:01:16.974Z,8.34
2023-02-12T00:03:43.934Z,8.39
2023-02-12T00:06:13.495Z,8.30
2023-02-12T00:08:41.669Z,8.23
2023-02-12T00:11:17.088Z,8.18
2023-02-12T00:13:44.486Z,8.22
2023-02-12T00:16:13.359Z,8.20
2023-02-12T00:18:40.666Z,8.33
2023-02-12T00:21:10.611Z,8.35
2023-02-12T00:23:38.984Z,8.27
2023-02-12T00:26:09.468Z,8.22
2023-02-12T00:28:37.778Z,8.34
2023-02-12T00:31:16.742Z,8.47
2023-02-12T00:33:43.961Z,8.42
2023-02-12T00:36:14.786Z,8.55
2023-02-12T00:38:41.634Z,8.41
2023-02-12T00:41:10.495Z,8.44
2023-02-12T00:43:37.428Z,8.46
2023-02-12T00:46:05.392Z,8.38
2023-02-12T00:48:32.553Z,8.37
2023-02-12T00:50:59.492Z,8.30
2023-02-12T00:53:28.728Z,8.29
2023-02-12T00:55:56.083Z,8.20
2023-02-12T00:58:23.336Z,8.22
2023-02-12T01:00:50.270Z,8.16
2023-02-12T01:03:17.758Z,8.04
2023-02-12T01:05:44.538Z,7.96
2023-02-12T01:08:13.667Z,7.99
2023-02-12T01:10:40.898Z,8.11
2023-02-12T01:13:13.286Z,8.22
2023-02-12T01:15:41.398Z,8.21
2023-02-12T01:18:08.538Z,8.28
2023-02-12T01:20:35.396Z,8.26
2023-02-12T01:23:02.374Z,7.93
2023-02-12T01:25:29.228Z,7.85
2023-02-12T01:27:56.139Z,7.77
2023-02-12T01:30:24.347Z,7.70
2023-02-12T01:32:51.751Z,7.60
2023-02-12T01:35:18.702Z,7.63
2023-02-12T01:37:45.529Z,7.68
2023-02-12T01:40:16.054Z,7.76
2023-02-12T01:42:42.966Z,7.82
2023-02-12T01:45:13.013Z,7.93
2023-02-12T01:47:44.743Z,7.94
2023-02-12T01:50:20.230Z,7.94
2023-02-12T01:52:51.906Z,7.93
2023-02-12T01:55:19.478Z,7.94
2023-02-12T01:57:47.806Z,7.92
2023-02-12T02:00:21.769Z,7.91
2023-02-12T02:02:53.072Z,7.83
2023-02-12T02:05:42.146Z,7.99
2023-02-12T02:08:09.981Z,8.01
2023-02-12T02:10:36.728Z,8.14
2023-02-12T02:13:22.218Z,7.95
2023-02-12T02:15:51.819Z,7.80
2023-02-12T02:18:35.603Z,7.86
2023-02-12T02:21:18.580Z,7.94
2023-02-12T02:24:29.801Z,7.85
2023-02-12T02:27:14.671Z,7.66
2023-02-12T02:29:47.672Z,7.72
2023-02-12T02:32:20.131Z,7.82
2023-02-12T02:35:12.364Z,7.80
2023-02-12T02:38:06.491Z,7.93
2023-02-12T02:40:40.542Z,7.97
2023-02-12T02:43:10.349Z,7.88
2023-02-12T02:46:02.553Z,7.88
2023-02-12T02:48:42.129Z,7.85
2023-02-12T02:51:14.367Z,7.80
2023-02-12T02:53:48.652Z,7.77
2023-02-12T02:56:18.338Z,7.77
2023-02-12T02:58:53.590Z,7.74
2023-02-12T03:01:30.712Z,7.56
2023-02-12T03:04:09.207Z,7.55
2023-02-12T03:06:56.253Z,7.56
2023-02-12T03:09:28.895Z,7.86
2023-02-12T03:12:00.608Z,7.97
2023-02-12T03:14:31.193Z,7.71
2023-02-12T03:17:15.795Z,7.71
2023-02-12T03:19:46.100Z,7.53
2023-02-12T03:22:18.726Z,7.58
2023-02-12T03:24:50.848Z,7.63
2023-02-12T03:27:23.387Z,7.52
2023-02-12T03:29:50.291Z,7.37
2023-02-12T03:32:35.918Z,7.12
2023-02-12T03:35:14.760Z,7.05
2023-02-12T03:37:47.970Z,7.51
2023-02-12T03:40:18.855Z,7.60
2023-02-12T03:43:10.285Z,7.58
2023-02-12T03:46:18.033Z,7.57
2023-02-12T03:49:10.581Z,7.57
2023-02-12T03:51:42.554Z,7.70
2023-02-12T03:54:11.022Z,7.53
2023-02-12T03:56:42.830Z,7.51
2023-02-12T03:59:10.084Z,7.27
2023-02-12T04:01:37.148Z,7.29
2023-02-12T04:04:06.655Z,7.43
2023-02-12T04:06:33.839Z,7.38
2023-02-12T04:09:10.405Z,7.49
2023-02-12T04:11:46.642Z,7.68
2023-02-12T04:14:29.665Z,7.70
2023-02-12T04:17:36.438Z,7.91
2023-02-12T04:20:06.530Z,7.97
2023-02-12T04:22:36.336Z,8.05
2023-02-12T04:25:33.666Z,8.03
2023-02-12T04:28:15.901Z,8.01
2023-02-12T04:30:57.110Z,7.97
2023-02-12T04:33:26.118Z,8.13
2023-02-12T04:36:03.072Z,8.19
2023-02-12T04:38:57.234Z,8.09
2023-02-12T04:41:24.971Z,8.17
2023-02-12T04:43:51.793Z,8.15
2023-02-12T04:46:18.647Z,7.93
2023-02-12T04:48:57.172Z,7.93
2023-02-12T04:51:24.391Z,7.93
2023-02-12T04:53:51.210Z,7.85
2023-02-12T04:56:18.119Z,8.03
2023-02-12T04:58:44.959Z,7.99
2023-02-12T05:01:12.033Z,7.90
2023-02-12T05:03:38.782Z,7.98
2023-02-12T05:06:07.582Z,7.90
2023-02-12T05:08:34.349Z,7.86
2023-02-12T05:11:06.410Z,7.92
2023-02-12T05:13:33.376Z,7.96
2023-02-12T05:16:00.625Z,8.09
2023-02-12T05:18:27.510Z,8.15
2023-02-12T05:21:02.172Z,8.13
2023-02-12T05:23:33.170Z,8.08
2023-02-12T05:26:00.478Z,8.07
2023-02-12T05:28:28.324Z,7.89
2023-02-12T05:30:55.728Z,7.76
2023-02-12T05:33:22.563Z,7.72
2023-02-12T05:35:49.985Z,7.74
2023-02-12T05:38:16.798Z,7.59
2023-02-12T05:40:43.754Z,7.57
2023-02-12T05:43:10.934Z,7.56
2023-02-12T05:45:38.234Z,7.62
2023-02-12T05:48:05.056Z,7.52
2023-02-12T05:50:31.929Z,7.60
2023-02-12T05:53:08.091Z,7.33
2023-02-12T05:55:34.914Z,7.21
2023-02-12T05:58:01.641Z,7.02
2023-02-12T06:00:28.581Z,6.95
2023-02-12T06:02:55.376Z,6.78
2023-02-12T06:05:22.151Z,6.55
2023-02-12T06:07:48.978Z,6.31
2023-02-12T06:10:15.868Z,6.21
2023-02-12T06:12:42.731Z,6.20
2023-02-12T06:15:09.958Z,6.29
2023-02-12T06:17:36.710Z,6.28
2023-02-12T06:20:04.061Z,6.34
2023-02-12T06:22:30.916Z,6.35
2023-02-12T06:24:57.685Z,6.28
2023-02-12T06:27:24.435Z,6.19
2023-02-12T06:29:51.236Z,6.03
2023-02-12T06:32:18.152Z,5.92
2023-02-12T06:34:45.172Z,5.66
2023-02-12T06:37:12.365Z,5.45
2023-02-12T06:39:39.176Z,5.51
2023-02-12T06:42:06.069Z,5.60
2023-02-12T06:44:32.961Z,5.42
2023-02-12T06:46:59.856Z,5.32
2023-02-12T06:49:26.735Z,5.20
2023-02-12T06:51:53.496Z,5.29
2023-02-12T06:54:20.322Z,5.37
2023-02-12T06:56:47.144Z,5.17
2023-02-12T06:59:15.976Z,5.17
2023-02-12T07:01:42.828Z,5.14
2023-02-12T07:04:10.131Z,5.21
2023-02-12T07:06:37.094Z,5.25
2023-02-12T07:09:05.209Z,5.13
2023-02-12T07:11:37.929Z,4.86
2023-02-12T07:14:05.725Z,4.97
2023-02-12T07:16:32.649Z,5.02
2023-02-12T07:18:59.519Z,4.92
2023-02-12T07:21:26.359Z,4.83
2023-02-12T07:23:53.581Z,4.72
2023-02-12T07:26:21.377Z,4.62
2023-02-12T07:28:48.687Z,4.60
2023-02-12T07:31:18.169Z,4.68
2023-02-12T07:33:45.676Z,4.58
2023-02-12T07:36:15.328Z,4.46
2023-02-12T07:38:42.538Z,4.32
2023-02-12T07:41:12.696Z,4.27
2023-02-12T07:43:41.045Z,4.35
2023-02-12T07:46:18.934Z,4.29
2023-02-12T07:48:46.859Z,4.45
2023-02-12T07:51:19.441Z,4.23
2023-02-12T07:53:46.480Z,4.33
2023-02-12T07:56:19.421Z,4.12
2023-02-12T07:58:48.175Z,4.13
2023-02-12T08:01:21.285Z,4.25
2023-02-12T08:03:49.363Z,4.15
2023-02-12T08:06:21.799Z,4.22
2023-02-12T08:08:50.633Z,4.10
2023-02-12T08:11:18.848Z,4.23
2023-02-12T08:13:46.066Z,4.35
2023-02-12T08:16:18.177Z,4.09
2023-02-12T08:18:45.359Z,4.10
2023-02-12T08:21:15.225Z,4.20
2023-02-12T08:23:42.438Z,4.18
2023-02-12T08:26:10.755Z,4.28
2023-02-12T08:28:39.445Z,4.23
2023-02-12T08:31:10.527Z,4.37
2023-02-12T08:36:39.335Z,4.57
2023-02-12T08:39:08.083Z,4.69
2023-02-12T08:41:35.271Z,4.60
2023-02-12T08:44:03.587Z,4.62
2023-02-12T08:46:34.576Z,4.76
2023-02-12T08:49:05.860Z,5.03
2023-02-12T08:51:35.895Z,5.17
2023-02-12T08:54:05.030Z,5.15
2023-02-12T08:56:33.560Z,5.07
2023-02-12T08:59:02.230Z,5.19
2023-02-12T09:01:30.978Z,5.14
2023-02-12T09:03:57.912Z,5.11
2023-02-12T09:06:25.834Z,5.09
2023-02-12T09:08:54.119Z,5.24
2023-02-12T09:11:26.678Z,5.23
2023-02-12T09:13:53.747Z,5.48
2023-02-12T09:16:20.496Z,5.71
2023-02-12T09:18:47.419Z,5.92
2023-02-12T09:21:16.749Z,6.06
2023-02-12T09:23:44.114Z,6.17
2023-02-12T09:26:13.209Z,6.21
2023-02-12T09:28:40.404Z,6.25
2023-02-12T09:31:16.186Z,6.23
2023-02-12T09:33:43.358Z,6.42
2023-02-12T09:36:15.807Z,6.42
2023-02-12T09:38:43.525Z,6.52
2023-02-12T09:41:21.917Z,6.54
2023-02-12T09:44:09.717Z,6.57
2023-02-12T09:46:53.970Z,6.64
2023-02-12T09:49:48.054Z,6.68
2023-02-12T09:52:20.010Z,6.78
2023-02-12T09:54:48.391Z,6.79
2023-02-12T09:57:19.240Z,6.85
2023-02-12T09:59:54.398Z,6.83
2023-02-12T10:02:22.503Z,6.82
2023-02-12T10:05:00.677Z,6.90
2023-02-12T10:07:45.907Z,7.00
2023-02-12T10:10:27.741Z,6.96
2023-02-12T10:12:58.245Z,7.07
2023-02-12T10:15:51.971Z,7.10
2023-02-12T10:18:56.347Z,7.17
2023-02-12T10:21:35.921Z,7.27
2023-02-12T10:24:31.567Z,7.36
2023-02-12T10:27:11.941Z,7.42
2023-02-12T10:29:42.418Z,7.48
2023-02-12T10:32:35.441Z,7.52
2023-02-12T10:35:02.533Z,7.59
2023-02-12T10:37:46.341Z,7.70
2023-02-12T10:40:30.090Z,7.75
2023-02-12T10:42:58.133Z,7.83
2023-02-12T10:45:32.226Z,7.92
2023-02-12T10:48:19.064Z,8.01
2023-02-12T10:51:20.679Z,8.09
2023-02-12T10:53:48.568Z,8.15
2023-02-12T10:56:18.917Z,8.19
2023-02-12T10:58:53.161Z,8.29
2023-02-12T11:01:37.637Z,8.37
2023-02-12T11:04:30.379Z,8.45
2023-02-12T11:07:00.374Z,8.52
2023-02-12T11:09:45.674Z,8.50
2023-02-12T11:12:27.833Z,8.50
2023-02-12T11:14:57.635Z,8.56
2023-02-12T11:17:44.518Z,8.66
2023-02-12T11:20:17.511Z,8.70
2023-02-12T11:22:51.346Z,8.77
2023-02-12T11:25:18.553Z,8.80
2023-02-12T11:27:45.576Z,8.81
2023-02-12T11:30:21.163Z,8.86
2023-02-12T11:32:49.575Z,8.82
2023-02-12T11:35:31.160Z,8.85
2023-02-12T11:37:59.086Z,8.92
2023-02-12T11:40:29.136Z,8.91
2023-02-12T11:43:02.211Z,9.03
2023-02-12T11:45:37.487Z,9.01
2023-02-12T11:48:21.321Z,9.05
2023-02-12T11:50:50.210Z,9.08
2023-02-12T11:53:32.696Z,9.07
2023-02-12T11:56:05.492Z,9.12
2023-02-12T11:58:32.461Z,9.10
2023-02-12T12:01:05.678Z,9.20
2023-02-12T12:03:59.608Z,9.12
2023-02-12T12:06:31.988Z,9.10
2023-02-12T12:09:08.113Z,9.09
2023-02-12T12:11:34.834Z,9.24
2023-02-12T12:14:12.716Z,9.21
2023-02-12T12:17:10.036Z,9.08
2023-02-12T12:20:03.761Z,9.08
2023-02-12T12:22:53.031Z,9.18
2023-02-12T12:25:24.527Z,9.14
2023-02-12T12:28:13.379Z,9.26
2023-02-12T12:30:43.488Z,9.27
2023-02-12T12:33:16.314Z,9.39
2023-02-12T12:36:21.030Z,9.43
2023-02-12T12:39:00.691Z,9.48
2023-02-12T12:41:48.166Z,9.54
2023-02-12T12:44:49.310Z,9.69
2023-02-12T12:47:37.732Z,9.59
2023-02-12T12:50:13.573Z,9.79
2023-02-12T12:52:46.448Z,10.12
2023-02-12T12:55:38.203Z,11.07
2023-02-12T12:58:13.805Z,11.50
2023-02-12T13:00:58.603Z,11.98
2023-02-12T13:03:43.419Z,12.67
2023-02-12T13:06:16.505Z,13.04
2023-02-12T13:09:08.210Z,13.01
2023-02-12T13:11:34.981Z,12.64
2023-02-12T13:14:19.612Z,13.02
2023-02-12T13:16:51.699Z,13.09
2023-02-12T13:19:45.900Z,13.25
2023-02-12T13:22:36.145Z,13.74
2023-02-12T13:25:22.906Z,13.93
2023-02-12T13:27:51.243Z,14.06
2023-02-12T13:30:22.173Z,13.63
2023-02-12T13:32:56.163Z,14.12
2023-02-12T13:35:24.105Z,14.10
2023-02-12T13:37:54.009Z,14.44
2023-02-12T13:40:29.657Z,14.12
2023-02-12T13:43:02.127Z,14.87
2023-02-12T13:45:42.282Z,15.26
2023-02-12T13:48:47.599Z,14.29
2023-02-12T13:51:32.497Z,13.06
2023-02-12T13:54:11.945Z,12.31
2023-02-12T13:56:41.972Z,12.08
2023-02-12T13:59:30.581Z,11.94
2023-02-12T14:02:18.579Z,11.63
2023-02-12T14:05:32.978Z,11.38
2023-02-12T14:08:03.606Z,12.53
2023-02-12T14:10:36.983Z,12.68
2023-02-12T14:13:11.457Z,13.79
2023-02-12T14:15:44.650Z,14.11
2023-02-12T14:18:37.587Z,15.44
2023-02-12T14:21:13.617Z,15.53
2023-02-12T14:23:46.031Z,16.55
2023-02-12T14:26:13.740Z,16.05
2023-02-12T14:28:40.524Z,14.84
2023-02-12T14:31:19.573Z,14.23
2023-02-12T14:33:48.686Z,15.13
2023-02-12T14:36:33.754Z,14.61
2023-02-12T14:39:23.393Z,13.56
2023-02-12T14:41:54.863Z,13.26
2023-02-12T14:44:23.213Z,12.56
2023-02-12T14:46:52.532Z,12.67
2023-02-12T14:49:24.631Z,12.34
2023-02-12T14:51:55.821Z,12.16
2023-02-12T14:54:31.821Z,12.11
2023-02-12T14:57:07.252Z,12.93
2023-02-12T14:59:39.280Z,14.30
2023-02-12T15:02:06.632Z,15.08
2023-02-12T15:04:37.724Z,15.44
2023-02-12T15:07:11.669Z,15.87
2023-02-12T15:10:00.707Z,16.29
2023-02-12T15:12:32.757Z,16.18
2023-02-12T15:15:30.934Z,15.17
2023-02-12T15:18:05.243Z,15.38
2023-02-12T15:20:56.717Z,15.03
2023-02-12T15:24:03.502Z,13.87
2023-02-12T15:26:34.006Z,12.97
2023-02-12T15:29:01.247Z,13.12
2023-02-12T15:31:30.323Z,12.44
2023-02-12T15:33:59.200Z,12.22
2023-02-12T15:36:27.937Z,12.01
2023-02-12T15:38:57.654Z,11.67
2023-02-12T15:41:44.761Z,11.33
2023-02-12T15:44:31.996Z,10.97
2023-02-12T15:47:09.493Z,11.11
2023-02-12T15:49:38.174Z,10.71
2023-02-12T15:52:20.657Z,10.49
2023-02-12T15:54:48.806Z,10.42
2023-02-12T15:57:22.603Z,10.52
2023-02-12T15:59:57.503Z,10.41
2023-02-12T16:02:30.026Z,10.13
2023-02-12T16:04:58.012Z,10.26
2023-02-12T16:07:26.968Z,10.08
2023-02-12T16:09:54.199Z,9.98
2023-02-12T16:12:24.717Z,10.02
2023-02-12T16:14:55.791Z,9.89
2023-02-12T16:17:25.531Z,9.94
2023-02-12T16:20:01.167Z,9.89
2023-02-12T16:22:35.920Z,9.93
2023-02-12T16:25:03.430Z,9.82
2023-02-12T16:27:34.921Z,9.74
2023-02-12T16:30:26.991Z,9.63
2023-02-12T16:32:54.168Z,9.62
2023-02-12T16:35:28.366Z,9.64
2023-02-12T16:38:01.426Z,9.53
2023-02-12T16:40:31.468Z,9.43
2023-02-12T16:43:00.127Z,9.38
2023-02-12T16:45:27.440Z,9.33
2023-02-12T16:48:00.587Z,9.19
2023-02-12T16:50:30.469Z,9.12
2023-02-12T16:53:05.376Z,9.06
2023-02-12T16:55:32.706Z,8.96
2023-02-12T16:58:00.529Z,9.04
2023-02-12T17:00:27.382Z,8.96
2023-02-12T17:02:55.829Z,8.93
2023-02-12T17:05:23.433Z,8.90
2023-02-12T17:07:50.460Z,8.84
2023-02-12T17:10:17.580Z,8.72
2023-02-12T17:12:45.840Z,8.63
2023-02-12T17:15:18.640Z,8.56
2023-02-12T17:17:45.406Z,8.51
2023-02-12T17:20:12.672Z,8.45
2023-02-12T17:22:39.545Z,8.53
2023-02-12T17:25:06.502Z,8.58
2023-02-12T17:27:33.319Z,8.44
2023-02-12T17:30:00.042Z,8.47
2023-02-12T17:32:26.937Z,8.38
2023-02-12T17:34:53.801Z,8.33
2023-02-12T17:37:22.353Z,8.32
2023-02-12T17:39:49.123Z,8.20
2023-02-12T17:42:15.969Z,8.13
2023-02-12T17:44:42.804Z,8.02
2023-02-12T17:47:09.685Z,7.76
2023-02-12T17:49:38.659Z,7.84
2023-02-12T17:52:07.327Z,7.73
2023-02-12T17:54:34.486Z,7.84
2023-02-12T17:57:01.255Z,7.88
2023-02-12T17:59:28.206Z,7.79
2023-02-12T18:01:55.449Z,7.67
2023-02-12T18:04:22.330Z,7.52
2023-02-12T18:06:49.304Z,7.55
2023-02-12T18:09:16.099Z,7.52
2023-02-12T18:11:42.999Z,7.76
2023-02-12T18:14:11.251Z,7.90
2023-02-12T18:16:38.183Z,7.78
2023-02-12T18:19:05.773Z,7.82
2023-02-12T18:21:35.039Z,7.72
2023-02-12T18:24:02.048Z,7.86
2023-02-12T18:26:28.863Z,7.77
2023-02-12T18:28:59.737Z,7.76
2023-02-12T18:31:27.121Z,7.83
2023-02-12T18:33:54.008Z,7.77
2023-02-12T18:36:21.751Z,7.85
2023-02-12T18:38:50.281Z,8.12
2023-02-12T18:41:35.928Z,8.18
2023-02-12T18:44:02.785Z,8.19
2023-02-12T18:46:31.409Z,8.22
2023-02-12T18:48:59.106Z,8.16
2023-02-12T18:51:28.297Z,8.30
2023-02-12T18:54:06.448Z,8.30
2023-02-12T18:56:36.355Z,8.35
2023-02-12T18:59:05.316Z,8.17
2023-02-12T19:01:33.347Z,8.26
2023-02-12T19:04:02.099Z,8.29
2023-02-12T19:06:29.917Z,8.22
2023-02-12T19:09:01.018Z,8.23
2023-02-12T19:11:28.666Z,8.28
2023-02-12T19:13:55.720Z,8.22
2023-02-12T19:16:23.983Z,8.16
2023-02-12T19:18:56.385Z,8.14
2023-02-12T19:21:26.242Z,8.11
2023-02-12T19:23:58.132Z,8.16
2023-02-12T19:26:25.436Z,8.18
2023-02-12T19:28:52.358Z,8.14
2023-02-12T19:31:25.332Z,7.95
2023-02-12T19:33:57.440Z,8.02
2023-02-12T19:36:25.694Z,7.96
2023-02-12T19:38:52.465Z,7.84
2023-02-12T19:41:22.291Z,7.81
2023-02-12T19:43:54.410Z,7.85
2023-02-12T19:46:21.901Z,7.82
2023-02-12T19:48:49.193Z,7.99
2023-02-12T19:51:21.275Z,8.15
2023-02-12T19:53:48.591Z,7.90
2023-02-12T19:56:15.711Z,7.94
2023-02-12T19:58:42.902Z,7.85
2023-02-12T20:01:15.430Z,7.98
2023-02-12T20:03:42.756Z,7.85
2023-02-12T20:06:11.771Z,7.73
2023-02-12T20:08:39.891Z,7.83
2023-02-12T20:11:08.656Z,7.78
2023-02-12T20:13:38.163Z,7.86
2023-02-12T20:16:11.355Z,7.93
2023-02-12T20:18:38.994Z,7.85
2023-02-12T20:21:14.191Z,7.89
2023-02-12T20:23:41.171Z,7.86
2023-02-12T20:26:09.505Z,7.81
2023-02-12T20:28:37.390Z,7.73
2023-02-12T20:31:09.018Z,7.72
2023-02-12T20:33:36.089Z,7.69
2023-02-12T20:36:02.872Z,7.68
2023-02-12T20:38:29.810Z,7.75
2023-02-12T20:41:03.288Z,7.71
2023-02-12T20:43:31.048Z,7.65
2023-02-12T20:46:04.917Z,7.53
2023-02-12T20:48:31.986Z,7.54
2023-02-12T20:51:13.471Z,7.49
2023-02-12T20:53:41.157Z,7.43
2023-02-12T20:56:14.041Z,7.38
2023-02-12T20:58:44.907Z,7.28
2023-02-12T21:01:15.853Z,7.24
2023-02-12T21:03:43.377Z,7.21
2023-02-12T21:06:10.824Z,7.16
2023-02-12T21:08:40.019Z,7.05
2023-02-12T21:11:15.405Z,6.98
2023-02-12T21:13:53.923Z,6.94
2023-02-12T21:16:34.019Z,6.86
2023-02-12T21:19:01.147Z,6.79
2023-02-12T21:21:30.283Z,6.70
2023-02-12T21:23:59.479Z,6.63
2023-02-12T21:26:28.107Z,6.71
2023-02-12T21:28:58.243Z,6.67
2023-02-12T21:31:28.741Z,6.68
2023-02-12T21:33:57.409Z,6.70
2023-02-12T21:36:30.438Z,6.68
2023-02-12T21:38:59.044Z,6.63
2023-02-12T21:41:31.116Z,6.60
2023-02-12T21:44:00.232Z,6.55
2023-02-12T21:46:27.806Z,6.56
2023-02-12T21:48:56.411Z,6.49
2023-02-12T21:51:26.149Z,6.51
2023-02-12T21:53:55.183Z,6.40
2023-02-12T21:56:22.000Z,6.48
2023-02-12T21:58:49.376Z,6.33
2023-02-12T22:01:26.017Z,6.35
2023-02-12T22:03:56.688Z,6.27
2023-02-12T22:06:25.026Z,6.33
2023-02-12T22:09:00.335Z,6.17
2023-02-12T22:11:30.864Z,6.16
2023-02-12T22:13:57.709Z,5.89
2023-02-12T22:16:26.417Z,5.90
2023-02-12T22:18:55.959Z,5.89
2023-02-12T22:21:24.413Z,5.85
2023-02-12T22:23:52.230Z,5.84
2023-02-12T22:26:24.676Z,5.76
2023-02-12T22:29:00.364Z,5.62
2023-02-12T22:31:29.540Z,5.61
2023-02-12T22:34:02.680Z,5.73
2023-02-12T22:36:29.537Z,5.75
2023-02-12T22:38:59.241Z,5.80
2023-02-12T22:41:27.209Z,5.89
2023-02-12T22:43:55.200Z,5.90
2023-02-12T22:46:23.798Z,5.91
2023-02-12T22:48:50.553Z,5.82
2023-02-12T22:51:23.041Z,5.82
2023-02-12T22:53:50.945Z,5.82
2023-02-12T22:56:17.921Z,5.87
2023-02-12T22:58:45.687Z,5.87
2023-02-12T23:01:16.097Z,5.90
2023-02-12T23:03:43.147Z,5.76
2023-02-12T23:06:18.176Z,5.87
2023-02-12T23:08:45.548Z,5.81
2023-02-12T23:11:12.558Z,5.64
2023-02-12T23:13:39.371Z,5.65
2023-02-12T23:16:06.838Z,5.53
2023-02-12T23:18:34.176Z,5.63
2023-02-12T23:21:01.593Z,5.31
2023-02-12T23:23:28.488Z,5.28
2023-02-12T23:25:55.444Z,4.85
2023-02-12T23:28:23.660Z,4.77
2023-02-12T23:30:51.381Z,4.71
2023-02-12T23:33:19.220Z,4.76
2023-02-12T23:35:47.072Z,4.83
2023-02-12T23:38:14.192Z,4.68
2023-02-12T23:40:42.542Z,4.74
2023-02-12T23:43:10.760Z,5.00
2023-02-12T23:45:38.048Z,5.22
2023-02-12T23:48:05.130Z,5.21
2023-02-12T23:50:32.129Z,5.28
2023-02-12T23:53:00.683Z,5.23
2023-02-12T23:55:28.629Z,4.93
2023-02-12T23:57:55.787Z,4.85
